Flight Track Log - Related Links

Times and Time Zones

All times are in EDT time to prevent confusion due to time zone crossing. See the AAY861 flight status page for this flight to view local times or setup timezone preferences in your user account.

Time Position Orientation Groundspeed Altitude Reporting Facility
EDT Latitude Longitude Course Direction KTS MPH feet Rate Location/Type
Fri 12:36:36 PM 26.8903 -81.9350 310° West 243 280 2,400  Level Miami Center
Fri 12:37:38 PM 26.9567 -81.9200 11° North 245 282 3,800 823 Climbing Miami Center
Fri 12:38:40 PM 27.0278 -81.9250 356° North 268 308 4,100 1,597 Climbing Miami Center
Fri 12:39:42 PM 27.1042 -81.9386 351° North 274 315 7,100 2,736 Climbing Miami Center
Fri 12:40:45 PM 27.1756 -81.9747 336° Northwest 285 328 9,800 1,824 Climbing Miami Center
Fri 12:41:00 PM 27.3249 -81.9832 310° West  Level FlightAware Approximate
Fri 12:41:47 PM 27.2714 -82.0289 333° Northwest 322 371 10,900  Level Miami Center
Fri 12:42:49 PM 27.3564 -82.0781 333° Northwest 338 389 10,900  Level Miami Center
Fri 12:43:52 PM 27.4414 -82.1267 333° Northwest 338 389 10,900  Level Miami Center
Fri 12:44:54 PM 27.5069 -82.1992 316° Northwest 330 380 10,900 -242 Level Miami Center
Fri 12:45:56 PM 27.5608 -82.2814 306° West 326 375 10,400 -484 Descending Miami Center
Fri 12:46:58 PM 27.5883 -82.3714 289° West 302 348 9,900 -677 Descending Miami Center
Fri 12:48:00 PM 27.6144 -82.4489 291° West 269 310 9,000 -984 Descending Miami Center
Fri 12:49:06 PM 27.6500 -82.5500 292° West 255 293 7,800 -905 Descending Tampa TRACON
Fri 12:50:06 PM 27.6667 -82.6167 286° West 258 297 7,100 -850 Descending Tampa TRACON
Fri 12:51:06 PM 27.7000 -82.6833 299° West 264 304 6,100 -1,000 Descending Tampa TRACON
Fri 12:52:06 PM 27.7833 -82.7167 341° North 279 321 5,100 -950 Descending Tampa TRACON
Fri 12:53:06 PM 27.8500 -82.7500 336° Northwest 271 312 4,200 -810 Descending Tampa TRACON
Fri 12:54:12 PM 27.9333 -82.7667 350° North 237 273 3,400 -900 Descending Tampa TRACON
Fri 12:55:06 PM 27.9833 -82.7667 360° North 226 260 2,400 -947 Descending Tampa TRACON
Fri 12:56:06 PM 28.0333 -82.7667 360° North 219 252 1,600 -400 Descending Tampa TRACON
Fri 12:57:06 PM 28.0333 -82.7167 90° East 187 215 1,600 -190 Level Tampa TRACON
Fri 12:58:12 PM 27.9833 -82.7000 164° South 130 150 1,200 -500 Descending Tampa TRACON
Fri 12:59:06 PM 27.9500 -82.7000 180° South 130 150 600 -667 Descending Tampa TRACON
Fri 01:02:00 PM 27.9100 -82.6875 139° Southeast  Level Estimated

Login

Don't have an account? Register now (free) for customized features, flight alerts, and more!